Pagrindinis puslapis
METAR-TAF:

METAR-TAF

Oro uostai :

Bandar Lengeh, Iranas

platuma: 26-35N, ilguma: 054-50E, Aukštis: 14 m

Dabartinis oras

Ataskaita buvo paskelbta 29 minutes, ne 04:00 UTC
Vėjas 6 kt iš Pietryčių
Temperatūra 27°C
Drėgmė 79%
Slėgis 1010 hPa
Matomumas: 5000 m
rūkana,

METAR: OIBL 220400Z 13006KT 5000 BR NSC 27/23 Q1010

Laikas: 08:59 (04:29 UTC)


TAF: trūkstamas

Orai ataskaitas ir orų prognozės (METAR, TAF).

turimą stotys yra geltonos ir raudonos taškus žemėlapyje.

Perkelti pele per norėdami pamatyti stoties vardą.

Tada spustelėkite, norėdami matyti oro stebėjimo ir prognozės.

Norėdami pakeisti žemėlapį: spustelėkite ant žalios mygtukų su juodo kryžiaus žemyn,; žalią mygtuką su brūkšneliu, jei norite nutolinti; arba žalių rodyklių gretimoms žemėlapius.


METAR-TAF: